createdAt,value
2023-05-04T00:03:36.940Z,91.93
2023-05-04T00:08:42.118Z,89.45
2023-05-04T00:13:44.696Z,89.06
2023-05-04T00:18:47.222Z,88.26
2023-05-04T00:23:51.118Z,89.08
2023-05-04T00:28:53.655Z,88.03
2023-05-04T00:33:56.373Z,86.02
2023-05-04T00:39:00.244Z,87.42
2023-05-04T00:44:04.499Z,87.47
2023-05-04T00:49:08.473Z,87.18
2023-05-04T00:54:12.636Z,87.36
2023-05-04T00:59:15.229Z,86.07
2023-05-04T01:04:17.976Z,86.27
2023-05-04T01:09:28.284Z,86.47
2023-05-04T01:14:31.642Z,85.70
2023-05-04T01:19:34.827Z,86.18
2023-05-04T01:24:40.943Z,88.32
2023-05-04T01:29:46.544Z,87.90
2023-05-04T01:34:49.354Z,87.98
2023-05-04T01:39:55.125Z,92.39
2023-05-04T01:44:57.824Z,91.94
2023-05-04T01:50:01.128Z,92.20
2023-05-04T01:55:05.504Z,92.10
2023-05-04T02:00:09.616Z,92.82
2023-05-04T02:05:18.582Z,92.62
2023-05-04T02:10:22.583Z,96.16
2023-05-04T02:15:25.292Z,98.28
2023-05-04T02:20:27.902Z,94.30
2023-05-04T02:25:32.245Z,95.57
2023-05-04T02:30:34.861Z,94.38
2023-05-04T02:35:37.460Z,94.12
2023-05-04T02:40:42.724Z,92.78
2023-05-04T02:45:45.340Z,95.92
2023-05-04T02:50:47.950Z,95.92
2023-05-04T02:55:51.916Z,96.57
2023-05-04T03:00:55.543Z,99.08
2023-05-04T03:05:58.117Z,99.34
2023-05-04T03:11:02.183Z,95.47
2023-05-04T03:16:06.192Z,95.91
2023-05-04T03:21:08.906Z,96.66
2023-05-04T03:26:13.571Z,96.34
2023-05-04T03:31:16.490Z,93.85
2023-05-04T03:36:19.104Z,93.44
2023-05-04T03:41:23.109Z,93.09
2023-05-04T03:46:26.304Z,93.24
2023-05-04T03:51:29.307Z,93.08
2023-05-04T03:56:33.246Z,93.74
2023-05-04T04:01:35.934Z,94.08
2023-05-04T04:06:39.305Z,94.87
2023-05-04T04:11:45.245Z,95.99
2023-05-04T04:16:48.371Z,95.16
2023-05-04T04:21:51.087Z,94.18
2023-05-04T04:26:55.044Z,97.07
2023-05-04T04:31:57.689Z,95.12
2023-05-04T04:37:00.992Z,95.72
2023-05-04T04:42:04.886Z,94.67
2023-05-04T04:47:07.707Z,95.22
2023-05-04T04:52:11.881Z,95.05
2023-05-04T04:57:16.644Z,94.94
2023-05-04T05:02:19.954Z,95.07
2023-05-04T05:07:22.705Z,94.70
2023-05-04T05:12:26.753Z,95.35
2023-05-04T05:17:29.483Z,94.94
2023-05-04T05:22:32.180Z,95.61
2023-05-04T05:27:36.518Z,95.46
2023-05-04T05:32:39.343Z,95.93
2023-05-04T05:37:42.236Z,97.68
2023-05-04T05:42:46.294Z,98.06
2023-05-04T05:47:48.983Z,96.94
2023-05-04T05:52:51.685Z,97.42
2023-05-04T05:57:55.951Z,96.24
2023-05-04T06:02:59.108Z,96.95
2023-05-04T06:08:01.809Z,98.25
2023-05-04T06:13:05.853Z,97.14
2023-05-04T06:18:08.509Z,95.81
2023-05-04T06:23:11.123Z,95.15
2023-05-04T06:28:15.022Z,95.91
2023-05-04T06:33:17.630Z,96.91
2023-05-04T06:38:20.401Z,95.59
2023-05-04T06:43:24.266Z,95.48
2023-05-04T06:48:27.275Z,95.49
2023-05-04T06:53:29.845Z,92.85
2023-05-04T06:58:33.750Z,91.60
2023-05-04T07:03:36.984Z,90.24
2023-05-04T07:08:39.640Z,89.75
2023-05-04T07:13:43.507Z,86.99
2023-05-04T07:18:46.282Z,86.35
2023-05-04T07:23:48.814Z,85.84
2023-05-04T07:28:53.097Z,83.58
2023-05-04T07:33:55.668Z,83.70
2023-05-04T07:38:58.289Z,83.52
2023-05-04T07:44:06.657Z,81.62
2023-05-04T07:49:10.537Z,80.51
2023-05-04T07:54:13.100Z,79.47
2023-05-04T07:59:18.730Z,81.13
2023-05-04T08:04:21.443Z,80.33
2023-05-04T08:09:24.005Z,78.02
2023-05-04T08:14:27.876Z,77.62
2023-05-04T08:19:30.895Z,78.62
2023-05-04T08:24:33.450Z,77.86
2023-05-04T08:29:37.645Z,79.34
2023-05-04T08:34:40.580Z,78.02
2023-05-04T08:39:43.484Z,78.94
2023-05-04T08:44:47.507Z,77.27
2023-05-04T08:49:50.134Z,79.75
2023-05-04T08:54:55.126Z,76.28
2023-05-04T09:00:01.299Z,75.38
2023-05-04T09:05:04.516Z,76.80
2023-05-04T09:10:08.550Z,78.21
2023-05-04T09:15:19.724Z,76.00
2023-05-04T09:20:22.561Z,77.92
2023-05-04T09:25:25.329Z,76.38
2023-05-04T09:30:29.268Z,75.97
2023-05-04T09:35:34.088Z,75.55
2023-05-04T09:40:38.724Z,78.26
2023-05-04T09:45:43.728Z,76.80
2023-05-04T09:50:54.414Z,72.45
2023-05-04T09:56:11.144Z,71.00
2023-05-04T10:01:15.430Z,72.63
2023-05-04T10:06:18.365Z,73.36
2023-05-04T10:11:21.256Z,70.17
2023-05-04T10:16:34.499Z,70.08
2023-05-04T10:21:49.601Z,68.29
2023-05-04T10:27:03.235Z,72.06
2023-05-04T10:32:18.322Z,70.33
2023-05-04T10:37:21.707Z,67.66
2023-05-04T10:42:24.296Z,67.96
2023-05-04T10:47:32.741Z,65.01
2023-05-04T10:52:46.676Z,66.91
2023-05-04T10:57:50.834Z,67.21
2023-05-04T11:03:04.043Z,67.69
2023-05-04T11:08:16.583Z,68.35
2023-05-04T11:13:19.543Z,67.13
2023-05-04T11:18:30.840Z,65.88
2023-05-04T11:23:33.990Z,68.39
2023-05-04T11:28:37.966Z,64.38
2023-05-04T11:33:47.957Z,61.31
2023-05-04T11:38:51.002Z,60.46
2023-05-04T11:43:54.118Z,59.44
2023-05-04T11:48:58.035Z,57.58
2023-05-04T11:54:01.118Z,59.48
2023-05-04T11:59:10.466Z,61.36
2023-05-04T12:04:14.477Z,72.88
2023-05-04T12:09:17.400Z,67.85
2023-05-04T12:14:20.665Z,64.85
2023-05-04T12:19:24.739Z,67.11
2023-05-04T12:24:27.942Z,62.56
2023-05-04T12:29:30.575Z,62.94
2023-05-04T12:34:34.713Z,70.13
2023-05-04T12:39:37.557Z,63.80
2023-05-04T12:44:40.103Z,71.87
2023-05-04T12:49:44.063Z,66.33
2023-05-04T12:54:46.609Z,68.92
2023-05-04T12:59:49.166Z,61.33
2023-05-04T13:04:53.282Z,63.94
2023-05-04T13:09:55.865Z,50.11
2023-05-04T13:14:59.401Z,52.50
2023-05-04T13:20:06.416Z,48.85
2023-05-04T13:25:09.860Z,53.82
2023-05-04T13:30:13.194Z,49.04
2023-05-04T13:35:17.436Z,43.56
2023-05-04T13:40:20.007Z,44.81
2023-05-04T13:45:22.685Z,50.32
2023-05-04T13:50:26.597Z,46.76
2023-05-04T13:55:29.230Z,50.70
2023-05-04T14:00:32.188Z,50.05
2023-05-04T14:05:36.492Z,43.99
2023-05-04T14:10:39.378Z,46.08
2023-05-04T14:15:42.338Z,49.27
2023-05-04T14:20:46.301Z,40.82
2023-05-04T14:25:52.346Z,53.00
2023-05-04T14:30:57.734Z,53.32
2023-05-04T14:36:01.823Z,53.09
2023-05-04T14:41:05.838Z,43.88
2023-05-04T14:46:09.182Z,39.83
2023-05-04T14:51:13.809Z,40.02
2023-05-04T14:56:16.408Z,38.37
2023-05-04T15:01:18.988Z,37.29
2023-05-04T15:06:22.896Z,43.44
2023-05-04T15:11:26.001Z,54.51
2023-05-04T15:16:32.161Z,45.63
2023-05-04T15:21:36.331Z,42.84
2023-05-04T15:26:38.881Z,42.88
2023-05-04T15:31:41.505Z,42.75
2023-05-04T15:36:45.465Z,42.05
2023-05-04T15:41:48.339Z,41.13
2023-05-04T15:46:51.439Z,41.61
2023-05-04T15:51:55.906Z,39.09
2023-05-04T15:56:58.697Z,41.43
2023-05-04T16:02:01.718Z,39.99
2023-05-04T16:07:05.602Z,42.27
2023-05-04T16:12:08.918Z,38.81
2023-05-04T16:17:11.860Z,41.59
2023-05-04T16:22:15.795Z,39.85
2023-05-04T16:27:18.347Z,45.30
2023-05-04T16:32:21.270Z,42.16
2023-05-04T16:37:25.235Z,41.20
2023-05-04T16:42:27.755Z,40.75
2023-05-04T16:47:30.964Z,41.14
2023-05-04T16:52:34.962Z,44.42
2023-05-04T16:57:37.541Z,43.11
2023-05-04T17:02:40.176Z,47.25
2023-05-04T17:07:44.260Z,40.60
2023-05-04T17:12:46.859Z,41.33
2023-05-04T17:17:49.659Z,40.55
2023-05-04T17:22:57.760Z,40.25
2023-05-04T17:28:00.561Z,40.94
2023-05-04T17:33:03.208Z,40.37
2023-05-04T17:38:07.799Z,40.63
2023-05-04T17:43:10.875Z,41.96
2023-05-04T17:48:13.554Z,44.23
2023-05-04T17:53:17.541Z,42.74
2023-05-04T17:58:20.369Z,43.32
2023-05-04T18:03:23.001Z,43.70
2023-05-04T18:08:27.254Z,44.83
2023-05-04T18:13:30.315Z,46.16
2023-05-04T18:18:32.989Z,47.12
2023-05-04T18:23:36.889Z,47.70
2023-05-04T18:28:39.570Z,48.41
2023-05-04T18:33:42.373Z,48.39
2023-05-04T18:38:49.581Z,49.25
2023-05-04T18:43:52.153Z,49.22
2023-05-04T18:48:56.130Z,50.16
2023-05-04T18:54:02.104Z,51.26
2023-05-04T18:59:05.886Z,51.87
2023-05-04T19:04:08.502Z,51.96
2023-05-04T19:09:14.337Z,52.92
2023-05-04T19:14:17.689Z,53.28
2023-05-04T19:19:20.680Z,53.94
2023-05-04T19:24:24.640Z,54.57
2023-05-04T19:29:28.143Z,55.54
2023-05-04T19:34:30.675Z,55.98
2023-05-04T19:39:34.558Z,55.93
2023-05-04T19:44:37.236Z,56.87
2023-05-04T19:49:39.914Z,57.06
2023-05-04T19:54:44.334Z,57.43
2023-05-04T19:59:47.355Z,57.32
2023-05-04T20:04:50.936Z,57.73
2023-05-04T20:09:54.962Z,58.04
2023-05-04T20:14:57.883Z,58.82
2023-05-04T20:20:02.207Z,58.95
2023-05-04T20:25:06.652Z,59.34
2023-05-04T20:30:10.211Z,59.82
2023-05-04T20:35:12.920Z,60.10
2023-05-04T20:40:17.766Z,60.31
2023-05-04T20:45:20.639Z,61.17
2023-05-04T20:50:23.298Z,62.00
2023-05-04T20:55:27.470Z,65.32
2023-05-04T21:00:32.996Z,66.52
2023-05-04T21:05:41.725Z,64.05
2023-05-04T21:10:46.449Z,63.96
2023-05-04T21:15:49.108Z,64.66
2023-05-04T21:20:51.887Z,64.85
2023-05-04T21:26:02.642Z,64.76
2023-05-04T21:31:07.713Z,65.87
2023-05-04T21:36:14.330Z,65.63
2023-05-04T21:41:18.337Z,65.88
2023-05-04T21:46:21.068Z,66.18
2023-05-04T21:51:23.689Z,67.27
2023-05-04T21:56:27.767Z,67.82
2023-05-04T22:01:30.448Z,67.88
2023-05-04T22:06:33.143Z,68.37
2023-05-04T22:11:37.141Z,69.17
2023-05-04T22:16:39.816Z,69.44
2023-05-04T22:21:42.402Z,69.78
2023-05-04T22:26:46.652Z,70.07
2023-05-04T22:31:49.235Z,70.26
2023-05-04T22:36:51.787Z,70.01
2023-05-04T22:41:55.634Z,70.75
2023-05-04T22:46:58.254Z,70.59
2023-05-04T22:52:00.886Z,70.75
2023-05-04T22:57:04.986Z,70.51
2023-05-04T23:02:08.104Z,70.47
2023-05-04T23:07:10.708Z,70.12
2023-05-04T23:12:15.060Z,70.25
2023-05-04T23:17:17.632Z,71.04
2023-05-04T23:22:20.175Z,71.00
2023-05-04T23:27:24.148Z,71.63
2023-05-04T23:32:26.759Z,71.72
2023-05-04T23:37:31.460Z,72.20
2023-05-04T23:42:35.316Z,72.36
2023-05-04T23:47:37.991Z,72.83
2023-05-04T23:52:40.918Z,73.66
2023-05-04T23:57:45.374Z,74.08
